sensor_id;sensor_type;location;lat;lon;timestamp;P1;durP1;ratioP1;P2;durP2;ratioP2
62709;SDS011;48770;51.624;5.886;2023-10-31T00:00:49;0.20;;;0.10;;
62709;SDS011;48770;51.624;5.886;2023-10-31T00:03:15;0.13;;;0.10;;
62709;SDS011;48770;51.624;5.886;2023-10-31T00:05:40;0.30;;;0.20;;
62709;SDS011;48770;51.624;5.886;2023-10-31T00:08:06;0.15;;;0.15;;
62709;SDS011;48770;51.624;5.886;2023-10-31T00:10:31;0.17;;;0.10;;
62709;SDS011;48770;51.624;5.886;2023-10-31T00:12:56;0.00;;;0.00;;
62709;SDS011;48770;51.624;5.886;2023-10-31T00:15:22;0.57;;;0.00;;
62709;SDS011;48770;51.624;5.886;2023-10-31T00:17:49;0.32;;;0.20;;
62709;SDS011;48770;51.624;5.886;2023-10-31T00:20:15;0.20;;;0.10;;
62709;SDS011;48770;51.624;5.886;2023-10-31T00:22:40;1.05;;;0.10;;
62709;SDS011;48770;51.624;5.886;2023-10-31T00:25:05;0.25;;;0.10;;
62709;SDS011;48770;51.624;5.886;2023-10-31T00:27:31;0.15;;;0.10;;
62709;SDS011;48770;51.624;5.886;2023-10-31T00:29:56;0.17;;;0.10;;
62709;SDS011;48770;51.624;5.886;2023-10-31T00:32:21;0.30;;;0.20;;
62709;SDS011;48770;51.624;5.886;2023-10-31T00:34:47;0.08;;;0.08;;
62709;SDS011;48770;51.624;5.886;2023-10-31T00:37:12;0.20;;;0.10;;
62709;SDS011;48770;51.624;5.886;2023-10-31T00:39:37;0.15;;;0.10;;
62709;SDS011;48770;51.624;5.886;2023-10-31T00:42:03;0.20;;;0.10;;
62709;SDS011;48770;51.624;5.886;2023-10-31T00:44:28;0.32;;;0.10;;
62709;SDS011;48770;51.624;5.886;2023-10-31T00:46:53;0.20;;;0.10;;
62709;SDS011;48770;51.624;5.886;2023-10-31T00:49:19;0.10;;;0.10;;
62709;SDS011;48770;51.624;5.886;2023-10-31T00:51:44;0.20;;;0.10;;
62709;SDS011;48770;51.624;5.886;2023-10-31T00:54:09;0.20;;;0.10;;
62709;SDS011;48770;51.624;5.886;2023-10-31T00:56:35;0.15;;;0.10;;
62709;SDS011;48770;51.624;5.886;2023-10-31T00:59:00;0.30;;;0.10;;
62709;SDS011;48770;51.624;5.886;2023-10-31T01:01:25;0.30;;;0.10;;
62709;SDS011;48770;51.624;5.886;2023-10-31T01:03:51;0.25;;;0.15;;
62709;SDS011;48770;51.624;5.886;2023-10-31T01:06:16;0.75;;;0.25;;
62709;SDS011;48770;51.624;5.886;2023-10-31T01:08:42;0.20;;;0.20;;
62709;SDS011;48770;51.624;5.886;2023-10-31T01:11:07;0.65;;;0.20;;
62709;SDS011;48770;51.624;5.886;2023-10-31T01:13:32;0.20;;;0.20;;
62709;SDS011;48770;51.624;5.886;2023-10-31T01:15:57;0.40;;;0.20;;
62709;SDS011;48770;51.624;5.886;2023-10-31T01:18:23;0.17;;;0.10;;
62709;SDS011;48770;51.624;5.886;2023-10-31T01:20:48;0.52;;;0.20;;
62709;SDS011;48770;51.624;5.886;2023-10-31T01:23:13;0.43;;;0.40;;
62709;SDS011;48770;51.624;5.886;2023-10-31T01:25:39;0.88;;;0.17;;
62709;SDS011;48770;51.624;5.886;2023-10-31T01:28:04;0.40;;;0.25;;
62709;SDS011;48770;51.624;5.886;2023-10-31T01:30:29;0.32;;;0.30;;
62709;SDS011;48770;51.624;5.886;2023-10-31T01:32:55;2.10;;;0.28;;
62709;SDS011;48770;51.624;5.886;2023-10-31T01:35:20;0.30;;;0.20;;
62709;SDS011;48770;51.624;5.886;2023-10-31T01:37:45;0.30;;;0.30;;
62709;SDS011;48770;51.624;5.886;2023-10-31T01:40:14;0.30;;;0.20;;
62709;SDS011;48770;51.624;5.886;2023-10-31T01:42:39;0.75;;;0.20;;
62709;SDS011;48770;51.624;5.886;2023-10-31T01:45:05;0.13;;;0.10;;
62709;SDS011;48770;51.624;5.886;2023-10-31T01:47:31;0.75;;;0.22;;
62709;SDS011;48770;51.624;5.886;2023-10-31T01:49:57;0.40;;;0.20;;
62709;SDS011;48770;51.624;5.886;2023-10-31T01:52:23;0.77;;;0.40;;
62709;SDS011;48770;51.624;5.886;2023-10-31T01:54:48;0.40;;;0.30;;
62709;SDS011;48770;51.624;5.886;2023-10-31T01:57:14;0.40;;;0.15;;
62709;SDS011;48770;51.624;5.886;2023-10-31T01:59:41;0.20;;;0.10;;
62709;SDS011;48770;51.624;5.886;2023-10-31T02:02:06;0.35;;;0.20;;
62709;SDS011;48770;51.624;5.886;2023-10-31T02:04:32;0.22;;;0.10;;
62709;SDS011;48770;51.624;5.886;2023-10-31T02:06:58;0.68;;;0.20;;
62709;SDS011;48770;51.624;5.886;2023-10-31T02:09:23;0.30;;;0.15;;
62709;SDS011;48770;51.624;5.886;2023-10-31T02:11:51;0.55;;;0.20;;
62709;SDS011;48770;51.624;5.886;2023-10-31T02:14:18;0.60;;;0.32;;
62709;SDS011;48770;51.624;5.886;2023-10-31T02:16:43;1.35;;;0.40;;
62709;SDS011;48770;51.624;5.886;2023-10-31T02:19:08;0.17;;;0.10;;
62709;SDS011;48770;51.624;5.886;2023-10-31T02:21:38;1.00;;;0.20;;
62709;SDS011;48770;51.624;5.886;2023-10-31T02:24:04;0.50;;;0.20;;
62709;SDS011;48770;51.624;5.886;2023-10-31T02:26:30;0.98;;;0.10;;
62709;SDS011;48770;51.624;5.886;2023-10-31T02:28:56;0.55;;;0.20;;
62709;SDS011;48770;51.624;5.886;2023-10-31T02:31:22;0.40;;;0.30;;
62709;SDS011;48770;51.624;5.886;2023-10-31T02:33:47;0.50;;;0.20;;
62709;SDS011;48770;51.624;5.886;2023-10-31T02:36:12;0.10;;;0.10;;
62709;SDS011;48770;51.624;5.886;2023-10-31T02:38:38;0.47;;;0.20;;
62709;SDS011;48770;51.624;5.886;2023-10-31T02:41:04;0.52;;;0.20;;
62709;SDS011;48770;51.624;5.886;2023-10-31T02:43:29;0.32;;;0.20;;
62709;SDS011;48770;51.624;5.886;2023-10-31T02:45:55;0.47;;;0.20;;
62709;SDS011;48770;51.624;5.886;2023-10-31T02:48:20;0.50;;;0.30;;
62709;SDS011;48770;51.624;5.886;2023-10-31T02:50:45;0.30;;;0.25;;
62709;SDS011;48770;51.624;5.886;2023-10-31T02:53:11;0.60;;;0.20;;
62709;SDS011;48770;51.624;5.886;2023-10-31T02:55:36;0.20;;;0.13;;
62709;SDS011;48770;51.624;5.886;2023-10-31T02:58:02;0.40;;;0.30;;
62709;SDS011;48770;51.624;5.886;2023-10-31T03:00:27;0.55;;;0.30;;
62709;SDS011;48770;51.624;5.886;2023-10-31T03:02:52;0.50;;;0.30;;
62709;SDS011;48770;51.624;5.886;2023-10-31T03:05:18;0.40;;;0.30;;
62709;SDS011;48770;51.624;5.886;2023-10-31T03:07:43;0.20;;;0.10;;
62709;SDS011;48770;51.624;5.886;2023-10-31T03:10:09;0.45;;;0.38;;
62709;SDS011;48770;51.624;5.886;2023-10-31T03:12:35;1.08;;;0.40;;
62709;SDS011;48770;51.624;5.886;2023-10-31T03:15:01;0.65;;;0.30;;
62709;SDS011;48770;51.624;5.886;2023-10-31T03:17:28;0.38;;;0.20;;
62709;SDS011;48770;51.624;5.886;2023-10-31T03:19:54;0.30;;;0.30;;
62709;SDS011;48770;51.624;5.886;2023-10-31T03:22:19;0.30;;;0.20;;
62709;SDS011;48770;51.624;5.886;2023-10-31T03:24:45;0.40;;;0.30;;
62709;SDS011;48770;51.624;5.886;2023-10-31T03:27:10;0.25;;;0.22;;
62709;SDS011;48770;51.624;5.886;2023-10-31T03:29:36;0.30;;;0.30;;
62709;SDS011;48770;51.624;5.886;2023-10-31T03:32:01;0.40;;;0.30;;
62709;SDS011;48770;51.624;5.886;2023-10-31T03:34:26;0.40;;;0.40;;
62709;SDS011;48770;51.624;5.886;2023-10-31T03:36:52;0.80;;;0.50;;
62709;SDS011;48770;51.624;5.886;2023-10-31T03:39:17;0.40;;;0.30;;
62709;SDS011;48770;51.624;5.886;2023-10-31T03:41:43;0.40;;;0.40;;
62709;SDS011;48770;51.624;5.886;2023-10-31T03:44:08;0.90;;;0.47;;
62709;SDS011;48770;51.624;5.886;2023-10-31T03:46:34;0.43;;;0.40;;
62709;SDS011;48770;51.624;5.886;2023-10-31T03:48:59;0.68;;;0.40;;
62709;SDS011;48770;51.624;5.886;2023-10-31T03:51:24;0.40;;;0.40;;
62709;SDS011;48770;51.624;5.886;2023-10-31T03:53:50;0.77;;;0.40;;
62709;SDS011;48770;51.624;5.886;2023-10-31T03:56:15;0.70;;;0.40;;
62709;SDS011;48770;51.624;5.886;2023-10-31T03:58:42;0.68;;;0.40;;
62709;SDS011;48770;51.624;5.886;2023-10-31T04:01:08;0.70;;;0.40;;
62709;SDS011;48770;51.624;5.886;2023-10-31T04:03:33;0.52;;;0.40;;
62709;SDS011;48770;51.624;5.886;2023-10-31T04:05:58;0.75;;;0.50;;
62709;SDS011;48770;51.624;5.886;2023-10-31T04:08:24;0.90;;;0.50;;
62709;SDS011;48770;51.624;5.886;2023-10-31T04:10:49;0.77;;;0.52;;
62709;SDS011;48770;51.624;5.886;2023-10-31T04:13:14;0.60;;;0.40;;
62709;SDS011;48770;51.624;5.886;2023-10-31T04:15:39;0.68;;;0.50;;
62709;SDS011;48770;51.624;5.886;2023-10-31T04:18:05;0.50;;;0.50;;
62709;SDS011;48770;51.624;5.886;2023-10-31T04:20:30;0.30;;;0.30;;
62709;SDS011;48770;51.624;5.886;2023-10-31T04:22:55;1.02;;;0.60;;
62709;SDS011;48770;51.624;5.886;2023-10-31T04:25:21;0.57;;;0.57;;
62709;SDS011;48770;51.624;5.886;2023-10-31T04:27:46;1.40;;;0.60;;
62709;SDS011;48770;51.624;5.886;2023-10-31T04:30:11;0.80;;;0.63;;
62709;SDS011;48770;51.624;5.886;2023-10-31T04:32:37;0.47;;;0.43;;
62709;SDS011;48770;51.624;5.886;2023-10-31T04:35:02;0.60;;;0.60;;
62709;SDS011;48770;51.624;5.886;2023-10-31T04:37:27;0.63;;;0.63;;
62709;SDS011;48770;51.624;5.886;2023-10-31T04:39:53;0.80;;;0.60;;
62709;SDS011;48770;51.624;5.886;2023-10-31T04:42:18;0.50;;;0.50;;
62709;SDS011;48770;51.624;5.886;2023-10-31T04:44:45;0.98;;;0.68;;
62709;SDS011;48770;51.624;5.886;2023-10-31T04:47:10;0.65;;;0.60;;
62709;SDS011;48770;51.624;5.886;2023-10-31T04:49:36;0.63;;;0.52;;
62709;SDS011;48770;51.624;5.886;2023-10-31T04:52:01;0.73;;;0.70;;
62709;SDS011;48770;51.624;5.886;2023-10-31T04:54:26;0.60;;;0.60;;
62709;SDS011;48770;51.624;5.886;2023-10-31T04:56:52;0.70;;;0.70;;
62709;SDS011;48770;51.624;5.886;2023-10-31T04:59:17;1.00;;;0.90;;
62709;SDS011;48770;51.624;5.886;2023-10-31T05:01:47;0.73;;;0.73;;
62709;SDS011;48770;51.624;5.886;2023-10-31T05:04:14;1.05;;;0.90;;
62709;SDS011;48770;51.624;5.886;2023-10-31T05:06:39;1.15;;;0.80;;
62709;SDS011;48770;51.624;5.886;2023-10-31T05:09:05;1.10;;;0.82;;
62709;SDS011;48770;51.624;5.886;2023-10-31T05:11:30;0.90;;;0.90;;
62709;SDS011;48770;51.624;5.886;2023-10-31T05:13:55;0.90;;;0.85;;
62709;SDS011;48770;51.624;5.886;2023-10-31T05:16:20;0.88;;;0.70;;
62709;SDS011;48770;51.624;5.886;2023-10-31T05:18:46;1.00;;;0.73;;
62709;SDS011;48770;51.624;5.886;2023-10-31T05:21:11;0.77;;;0.77;;
62709;SDS011;48770;51.624;5.886;2023-10-31T05:23:36;0.82;;;0.80;;
62709;SDS011;48770;51.624;5.886;2023-10-31T05:26:04;0.93;;;0.70;;
62709;SDS011;48770;51.624;5.886;2023-10-31T05:28:30;0.90;;;0.90;;
62709;SDS011;48770;51.624;5.886;2023-10-31T05:30:55;0.90;;;0.90;;
62709;SDS011;48770;51.624;5.886;2023-10-31T05:33:20;1.00;;;0.90;;
62709;SDS011;48770;51.624;5.886;2023-10-31T05:35:46;0.63;;;0.63;;
62709;SDS011;48770;51.624;5.886;2023-10-31T05:38:11;0.70;;;0.70;;
62709;SDS011;48770;51.624;5.886;2023-10-31T05:40:36;1.20;;;1.10;;
62709;SDS011;48770;51.624;5.886;2023-10-31T05:43:02;0.82;;;0.82;;
62709;SDS011;48770;51.624;5.886;2023-10-31T05:45:28;0.80;;;0.80;;
62709;SDS011;48770;51.624;5.886;2023-10-31T05:47:53;1.00;;;0.70;;
62709;SDS011;48770;51.624;5.886;2023-10-31T05:50:18;1.30;;;0.93;;
62709;SDS011;48770;51.624;5.886;2023-10-31T05:52:44;0.80;;;0.80;;
62709;SDS011;48770;51.624;5.886;2023-10-31T05:55:09;1.45;;;1.00;;
62709;SDS011;48770;51.624;5.886;2023-10-31T05:57:34;0.90;;;0.90;;
62709;SDS011;48770;51.624;5.886;2023-10-31T06:00:00;0.70;;;0.70;;
62709;SDS011;48770;51.624;5.886;2023-10-31T06:02:25;1.05;;;0.98;;
62709;SDS011;48770;51.624;5.886;2023-10-31T06:04:50;1.00;;;0.85;;
62709;SDS011;48770;51.624;5.886;2023-10-31T06:07:16;1.10;;;1.00;;
62709;SDS011;48770;51.624;5.886;2023-10-31T06:09:41;0.70;;;0.70;;
62709;SDS011;48770;51.624;5.886;2023-10-31T06:12:06;0.80;;;0.80;;
62709;SDS011;48770;51.624;5.886;2023-10-31T06:14:31;0.85;;;0.85;;
62709;SDS011;48770;51.624;5.886;2023-10-31T06:16:57;1.08;;;1.00;;
62709;SDS011;48770;51.624;5.886;2023-10-31T06:19:24;1.63;;;0.80;;
62709;SDS011;48770;51.624;5.886;2023-10-31T06:21:49;0.98;;;0.90;;
62709;SDS011;48770;51.624;5.886;2023-10-31T06:24:15;0.65;;;0.65;;
62709;SDS011;48770;51.624;5.886;2023-10-31T06:26:40;0.70;;;0.70;;
62709;SDS011;48770;51.624;5.886;2023-10-31T06:29:05;0.80;;;0.77;;
62709;SDS011;48770;51.624;5.886;2023-10-31T06:31:31;0.85;;;0.77;;
62709;SDS011;48770;51.624;5.886;2023-10-31T06:33:56;0.70;;;0.70;;
62709;SDS011;48770;51.624;5.886;2023-10-31T06:36:22;0.77;;;0.68;;
62709;SDS011;48770;51.624;5.886;2023-10-31T06:38:47;0.70;;;0.70;;
62709;SDS011;48770;51.624;5.886;2023-10-31T06:41:12;0.75;;;0.73;;
62709;SDS011;48770;51.624;5.886;2023-10-31T06:43:38;1.15;;;0.90;;
62709;SDS011;48770;51.624;5.886;2023-10-31T06:46:03;0.95;;;0.90;;
62709;SDS011;48770;51.624;5.886;2023-10-31T06:48:30;0.70;;;0.70;;
62709;SDS011;48770;51.624;5.886;2023-10-31T06:50:55;1.15;;;0.90;;
62709;SDS011;48770;51.624;5.886;2023-10-31T06:53:20;0.70;;;0.70;;
62709;SDS011;48770;51.624;5.886;2023-10-31T06:55:46;0.70;;;0.70;;
62709;SDS011;48770;51.624;5.886;2023-10-31T06:58:11;0.70;;;0.60;;
62709;SDS011;48770;51.624;5.886;2023-10-31T07:00:36;0.50;;;0.50;;
62709;SDS011;48770;51.624;5.886;2023-10-31T07:03:02;1.00;;;0.90;;
62709;SDS011;48770;51.624;5.886;2023-10-31T07:05:31;0.50;;;0.50;;
62709;SDS011;48770;51.624;5.886;2023-10-31T07:07:57;0.70;;;0.65;;
62709;SDS011;48770;51.624;5.886;2023-10-31T07:10:22;0.60;;;0.60;;
62709;SDS011;48770;51.624;5.886;2023-10-31T07:12:47;0.80;;;0.80;;
62709;SDS011;48770;51.624;5.886;2023-10-31T07:15:12;0.50;;;0.50;;
62709;SDS011;48770;51.624;5.886;2023-10-31T07:17:38;0.82;;;0.60;;
62709;SDS011;48770;51.624;5.886;2023-10-31T07:20:03;0.70;;;0.70;;
62709;SDS011;48770;51.624;5.886;2023-10-31T07:22:30;0.73;;;0.73;;
62709;SDS011;48770;51.624;5.886;2023-10-31T07:24:56;0.70;;;0.70;;
62709;SDS011;48770;51.624;5.886;2023-10-31T07:27:24;0.70;;;0.70;;
62709;SDS011;48770;51.624;5.886;2023-10-31T07:29:49;0.60;;;0.60;;
62709;SDS011;48770;51.624;5.886;2023-10-31T07:32:14;1.10;;;0.68;;
62709;SDS011;48770;51.624;5.886;2023-10-31T07:34:40;0.55;;;0.55;;
62709;SDS011;48770;51.624;5.886;2023-10-31T07:37:07;0.50;;;0.50;;
62709;SDS011;48770;51.624;5.886;2023-10-31T07:39:32;0.68;;;0.60;;
62709;SDS011;48770;51.624;5.886;2023-10-31T07:41:57;0.70;;;0.70;;
62709;SDS011;48770;51.624;5.886;2023-10-31T07:44:23;0.50;;;0.50;;
62709;SDS011;48770;51.624;5.886;2023-10-31T07:46:48;0.60;;;0.60;;
62709;SDS011;48770;51.624;5.886;2023-10-31T07:49:13;0.57;;;0.57;;
62709;SDS011;48770;51.624;5.886;2023-10-31T07:51:39;0.50;;;0.50;;
62709;SDS011;48770;51.624;5.886;2023-10-31T07:54:05;0.93;;;0.73;;
62709;SDS011;48770;51.624;5.886;2023-10-31T07:56:30;0.60;;;0.60;;
62709;SDS011;48770;51.624;5.886;2023-10-31T07:58:57;0.60;;;0.57;;
62709;SDS011;48770;51.624;5.886;2023-10-31T08:01:23;0.65;;;0.65;;
62709;SDS011;48770;51.624;5.886;2023-10-31T08:03:48;0.60;;;0.60;;
62709;SDS011;48770;51.624;5.886;2023-10-31T08:06:13;0.50;;;0.50;;
62709;SDS011;48770;51.624;5.886;2023-10-31T08:08:39;0.80;;;0.80;;
62709;SDS011;48770;51.624;5.886;2023-10-31T08:11:07;0.55;;;0.55;;
62709;SDS011;48770;51.624;5.886;2023-10-31T08:13:33;0.50;;;0.50;;
62709;SDS011;48770;51.624;5.886;2023-10-31T08:15:58;0.45;;;0.40;;
62709;SDS011;48770;51.624;5.886;2023-10-31T08:18:24;0.65;;;0.50;;
62709;SDS011;48770;51.624;5.886;2023-10-31T08:20:49;0.60;;;0.60;;
62709;SDS011;48770;51.624;5.886;2023-10-31T08:23:16;0.70;;;0.60;;
62709;SDS011;48770;51.624;5.886;2023-10-31T08:25:42;0.47;;;0.47;;
62709;SDS011;48770;51.624;5.886;2023-10-31T08:28:07;0.40;;;0.40;;
62709;SDS011;48770;51.624;5.886;2023-10-31T08:30:33;0.88;;;0.85;;
62709;SDS011;48770;51.624;5.886;2023-10-31T08:32:58;0.60;;;0.60;;
62709;SDS011;48770;51.624;5.886;2023-10-31T08:35:24;0.60;;;0.60;;
62709;SDS011;48770;51.624;5.886;2023-10-31T08:37:49;0.45;;;0.40;;
62709;SDS011;48770;51.624;5.886;2023-10-31T08:40:15;0.60;;;0.60;;
62709;SDS011;48770;51.624;5.886;2023-10-31T08:42:40;0.43;;;0.40;;
62709;SDS011;48770;51.624;5.886;2023-10-31T08:45:06;0.60;;;0.60;;
62709;SDS011;48770;51.624;5.886;2023-10-31T08:47:32;0.82;;;0.70;;
62709;SDS011;48770;51.624;5.886;2023-10-31T08:49:58;0.52;;;0.50;;
62709;SDS011;48770;51.624;5.886;2023-10-31T08:52:23;2.88;;;0.80;;
62709;SDS011;48770;51.624;5.886;2023-10-31T08:54:48;0.63;;;0.60;;
62709;SDS011;48770;51.624;5.886;2023-10-31T08:57:14;0.70;;;0.60;;
62709;SDS011;48770;51.624;5.886;2023-10-31T08:59:39;0.50;;;0.50;;
62709;SDS011;48770;51.624;5.886;2023-10-31T09:02:04;0.65;;;0.57;;
62709;SDS011;48770;51.624;5.886;2023-10-31T09:04:30;0.60;;;0.60;;
62709;SDS011;48770;51.624;5.886;2023-10-31T09:06:55;0.65;;;0.55;;
62709;SDS011;48770;51.624;5.886;2023-10-31T09:09:20;0.50;;;0.50;;
62709;SDS011;48770;51.624;5.886;2023-10-31T09:11:45;0.50;;;0.47;;
62709;SDS011;48770;51.624;5.886;2023-10-31T09:14:11;0.60;;;0.60;;
62709;SDS011;48770;51.624;5.886;2023-10-31T09:16:36;0.52;;;0.52;;
62709;SDS011;48770;51.624;5.886;2023-10-31T09:19:01;0.35;;;0.35;;
62709;SDS011;48770;51.624;5.886;2023-10-31T09:21:27;0.60;;;0.55;;
62709;SDS011;48770;51.624;5.886;2023-10-31T09:23:52;0.70;;;0.70;;
62709;SDS011;48770;51.624;5.886;2023-10-31T09:26:17;0.52;;;0.52;;
62709;SDS011;48770;51.624;5.886;2023-10-31T09:28:43;0.60;;;0.60;;
62709;SDS011;48770;51.624;5.886;2023-10-31T09:31:14;0.70;;;0.55;;
62709;SDS011;48770;51.624;5.886;2023-10-31T09:33:43;1.00;;;0.60;;
62709;SDS011;48770;51.624;5.886;2023-10-31T09:36:09;0.98;;;0.63;;
62709;SDS011;48770;51.624;5.886;2023-10-31T09:38:35;0.57;;;0.57;;
62709;SDS011;48770;51.624;5.886;2023-10-31T09:41:00;0.82;;;0.70;;
62709;SDS011;48770;51.624;5.886;2023-10-31T09:43:25;1.63;;;0.77;;
62709;SDS011;48770;51.624;5.886;2023-10-31T09:45:51;1.13;;;0.88;;
62709;SDS011;48770;51.624;5.886;2023-10-31T09:48:17;1.17;;;0.80;;
62709;SDS011;48770;51.624;5.886;2023-10-31T09:50:44;1.50;;;0.82;;
62709;SDS011;48770;51.624;5.886;2023-10-31T09:53:11;2.55;;;1.15;;
62709;SDS011;48770;51.624;5.886;2023-10-31T09:55:37;1.10;;;1.00;;
62709;SDS011;48770;51.624;5.886;2023-10-31T09:58:03;1.10;;;1.00;;
62709;SDS011;48770;51.624;5.886;2023-10-31T10:00:29;1.70;;;1.30;;
62709;SDS011;48770;51.624;5.886;2023-10-31T10:02:54;1.60;;;1.50;;
62709;SDS011;48770;51.624;5.886;2023-10-31T10:05:20;1.20;;;1.10;;
62709;SDS011;48770;51.624;5.886;2023-10-31T10:07:48;1.92;;;1.33;;
62709;SDS011;48770;51.624;5.886;2023-10-31T10:10:13;2.33;;;1.10;;
62709;SDS011;48770;51.624;5.886;2023-10-31T10:12:41;1.33;;;1.13;;
62709;SDS011;48770;51.624;5.886;2023-10-31T10:15:07;1.73;;;1.20;;
62709;SDS011;48770;51.624;5.886;2023-10-31T10:17:33;1.92;;;1.40;;
62709;SDS011;48770;51.624;5.886;2023-10-31T10:20:08;1.80;;;1.17;;
62709;SDS011;48770;51.624;5.886;2023-10-31T10:22:41;1.10;;;1.00;;
62709;SDS011;48770;51.624;5.886;2023-10-31T10:25:11;2.90;;;1.00;;
62709;SDS011;48770;51.624;5.886;2023-10-31T10:27:39;1.40;;;1.25;;
62709;SDS011;48770;51.624;5.886;2023-10-31T10:30:05;2.35;;;1.20;;
62709;SDS011;48770;51.624;5.886;2023-10-31T10:32:32;1.40;;;1.30;;
62709;SDS011;48770;51.624;5.886;2023-10-31T10:34:58;1.60;;;1.23;;
62709;SDS011;48770;51.624;5.886;2023-10-31T10:37:24;1.40;;;1.10;;
62709;SDS011;48770;51.624;5.886;2023-10-31T10:39:51;1.30;;;1.20;;
62709;SDS011;48770;51.624;5.886;2023-10-31T10:42:21;1.35;;;1.25;;
62709;SDS011;48770;51.624;5.886;2023-10-31T10:44:56;1.05;;;0.95;;
62709;SDS011;48770;51.624;5.886;2023-10-31T10:47:27;1.20;;;1.10;;
62709;SDS011;48770;51.624;5.886;2023-10-31T10:49:53;2.20;;;1.05;;
62709;SDS011;48770;51.624;5.886;2023-10-31T10:52:23;2.35;;;1.13;;
62709;SDS011;48770;51.624;5.886;2023-10-31T10:54:54;1.20;;;1.00;;
62709;SDS011;48770;51.624;5.886;2023-10-31T10:57:42;1.38;;;1.10;;
62709;SDS011;48770;51.624;5.886;2023-10-31T11:00:13;0.90;;;0.90;;
62709;SDS011;48770;51.624;5.886;2023-10-31T11:02:40;1.52;;;1.15;;
62709;SDS011;48770;51.624;5.886;2023-10-31T11:05:09;1.40;;;1.27;;
62709;SDS011;48770;51.624;5.886;2023-10-31T11:07:35;2.78;;;1.10;;
62709;SDS011;48770;51.624;5.886;2023-10-31T11:10:02;0.88;;;0.80;;
62709;SDS011;48770;51.624;5.886;2023-10-31T11:12:29;2.88;;;1.10;;
62709;SDS011;48770;51.624;5.886;2023-10-31T11:14:56;1.10;;;1.00;;
62709;SDS011;48770;51.624;5.886;2023-10-31T11:20:03;1.50;;;1.25;;
62709;SDS011;48770;51.624;5.886;2023-10-31T11:25:06;1.85;;;1.38;;
62709;SDS011;48770;51.624;5.886;2023-10-31T11:27:36;1.17;;;0.98;;
62709;SDS011;48770;51.624;5.886;2023-10-31T11:30:04;1.50;;;1.20;;
62709;SDS011;48770;51.624;5.886;2023-10-31T11:32:31;1.63;;;1.20;;
62709;SDS011;48770;51.624;5.886;2023-10-31T11:34:57;1.48;;;0.80;;
62709;SDS011;48770;51.624;5.886;2023-10-31T11:37:26;6.18;;;1.20;;
62709;SDS011;48770;51.624;5.886;2023-10-31T11:45:09;1.02;;;1.00;;
62709;SDS011;48770;51.624;5.886;2023-10-31T11:47:47;1.23;;;1.05;;
62709;SDS011;48770;51.624;5.886;2023-10-31T11:50:14;1.38;;;0.85;;
62709;SDS011;48770;51.624;5.886;2023-10-31T11:52:40;1.63;;;0.90;;
62709;SDS011;48770;51.624;5.886;2023-10-31T11:55:14;1.40;;;1.05;;
62709;SDS011;48770;51.624;5.886;2023-10-31T11:57:39;0.70;;;0.70;;
62709;SDS011;48770;51.624;5.886;2023-10-31T12:00:05;2.08;;;0.95;;
62709;SDS011;48770;51.624;5.886;2023-10-31T12:02:32;1.50;;;1.08;;
62709;SDS011;48770;51.624;5.886;2023-10-31T12:05:11;1.17;;;1.08;;
62709;SDS011;48770;51.624;5.886;2023-10-31T12:07:45;3.42;;;1.20;;
62709;SDS011;48770;51.624;5.886;2023-10-31T12:10:10;1.67;;;0.90;;
62709;SDS011;48770;51.624;5.886;2023-10-31T12:12:36;1.00;;;0.90;;
62709;SDS011;48770;51.624;5.886;2023-10-31T12:15:08;1.13;;;0.80;;
62709;SDS011;48770;51.624;5.886;2023-10-31T12:17:34;1.63;;;1.10;;
62709;SDS011;48770;51.624;5.886;2023-10-31T12:20:04;1.48;;;0.95;;
62709;SDS011;48770;51.624;5.886;2023-10-31T12:22:30;0.80;;;0.80;;
62709;SDS011;48770;51.624;5.886;2023-10-31T12:25:02;2.13;;;0.95;;
62709;SDS011;48770;51.624;5.886;2023-10-31T12:30:29;1.70;;;1.10;;
62709;SDS011;48770;51.624;5.886;2023-10-31T12:32:55;1.00;;;0.70;;
62709;SDS011;48770;51.624;5.886;2023-10-31T12:35:22;1.17;;;0.73;;
62709;SDS011;48770;51.624;5.886;2023-10-31T12:37:49;1.25;;;0.80;;
62709;SDS011;48770;51.624;5.886;2023-10-31T12:40:16;1.25;;;0.80;;
62709;SDS011;48770;51.624;5.886;2023-10-31T12:42:44;1.58;;;0.77;;
62709;SDS011;48770;51.624;5.886;2023-10-31T12:45:14;0.80;;;0.80;;
62709;SDS011;48770;51.624;5.886;2023-10-31T12:47:40;0.95;;;0.85;;
62709;SDS011;48770;51.624;5.886;2023-10-31T12:50:09;0.90;;;0.70;;
62709;SDS011;48770;51.624;5.886;2023-10-31T12:52:47;1.23;;;0.80;;
62709;SDS011;48770;51.624;5.886;2023-10-31T12:55:14;1.13;;;0.85;;
62709;SDS011;48770;51.624;5.886;2023-10-31T12:57:40;0.75;;;0.68;;
62709;SDS011;48770;51.624;5.886;2023-10-31T13:00:05;0.88;;;0.77;;
62709;SDS011;48770;51.624;5.886;2023-10-31T13:02:35;1.10;;;0.70;;
62709;SDS011;48770;51.624;5.886;2023-10-31T13:05:10;1.00;;;0.90;;
62709;SDS011;48770;51.624;5.886;2023-10-31T13:07:41;0.60;;;0.57;;
62709;SDS011;48770;51.624;5.886;2023-10-31T13:10:13;1.60;;;0.70;;
62709;SDS011;48770;51.624;5.886;2023-10-31T13:12:42;0.68;;;0.60;;
62709;SDS011;48770;51.624;5.886;2023-10-31T13:15:08;0.70;;;0.60;;
62709;SDS011;48770;51.624;5.886;2023-10-31T13:17:35;0.93;;;0.82;;
62709;SDS011;48770;51.624;5.886;2023-10-31T13:20:03;0.88;;;0.60;;
62709;SDS011;48770;51.624;5.886;2023-10-31T13:22:31;0.60;;;0.55;;
62709;SDS011;48770;51.624;5.886;2023-10-31T13:24:56;0.75;;;0.60;;
62709;SDS011;48770;51.624;5.886;2023-10-31T13:27:22;1.77;;;0.40;;
62709;SDS011;48770;51.624;5.886;2023-10-31T13:29:47;0.95;;;0.60;;
62709;SDS011;48770;51.624;5.886;2023-10-31T13:32:14;0.80;;;0.63;;
62709;SDS011;48770;51.624;5.886;2023-10-31T13:34:40;2.25;;;0.68;;
62709;SDS011;48770;51.624;5.886;2023-10-31T13:37:06;0.45;;;0.45;;
62709;SDS011;48770;51.624;5.886;2023-10-31T13:39:33;0.50;;;0.50;;
62709;SDS011;48770;51.624;5.886;2023-10-31T13:41:58;1.05;;;0.60;;
62709;SDS011;48770;51.624;5.886;2023-10-31T13:44:24;1.88;;;0.90;;
62709;SDS011;48770;51.624;5.886;2023-10-31T13:46:49;0.52;;;0.52;;
62709;SDS011;48770;51.624;5.886;2023-10-31T13:49:14;0.60;;;0.52;;
62709;SDS011;48770;51.624;5.886;2023-10-31T13:51:39;0.60;;;0.50;;
62709;SDS011;48770;51.624;5.886;2023-10-31T13:54:05;0.80;;;0.60;;
62709;SDS011;48770;51.624;5.886;2023-10-31T13:56:31;0.50;;;0.43;;
62709;SDS011;48770;51.624;5.886;2023-10-31T13:58:57;0.60;;;0.60;;
62709;SDS011;48770;51.624;5.886;2023-10-31T14:01:22;0.60;;;0.43;;
62709;SDS011;48770;51.624;5.886;2023-10-31T14:03:50;0.77;;;0.60;;
62709;SDS011;48770;51.624;5.886;2023-10-31T14:06:15;0.57;;;0.50;;
62709;SDS011;48770;51.624;5.886;2023-10-31T14:08:41;0.47;;;0.43;;
62709;SDS011;48770;51.624;5.886;2023-10-31T14:11:07;3.35;;;0.50;;
62709;SDS011;48770;51.624;5.886;2023-10-31T14:13:32;0.75;;;0.57;;
62709;SDS011;48770;51.624;5.886;2023-10-31T14:15:58;0.85;;;0.45;;
62709;SDS011;48770;51.624;5.886;2023-10-31T14:18:23;4.03;;;0.80;;
62709;SDS011;48770;51.624;5.886;2023-10-31T14:20:48;0.82;;;0.80;;
62709;SDS011;48770;51.624;5.886;2023-10-31T14:23:14;0.98;;;0.38;;
62709;SDS011;48770;51.624;5.886;2023-10-31T14:25:39;0.90;;;0.50;;
62709;SDS011;48770;51.624;5.886;2023-10-31T14:28:04;0.43;;;0.40;;
62709;SDS011;48770;51.624;5.886;2023-10-31T14:30:30;0.60;;;0.45;;
62709;SDS011;48770;51.624;5.886;2023-10-31T14:32:57;1.40;;;0.40;;
62709;SDS011;48770;51.624;5.886;2023-10-31T14:35:22;0.70;;;0.47;;
62709;SDS011;48770;51.624;5.886;2023-10-31T14:37:47;1.13;;;0.50;;
62709;SDS011;48770;51.624;5.886;2023-10-31T14:40:13;0.80;;;0.30;;
62709;SDS011;48770;51.624;5.886;2023-10-31T14:42:38;4.18;;;0.30;;
62709;SDS011;48770;51.624;5.886;2023-10-31T14:45:04;3.80;;;0.40;;
62709;SDS011;48770;51.624;5.886;2023-10-31T14:47:29;1.08;;;0.50;;
62709;SDS011;48770;51.624;5.886;2023-10-31T14:49:54;1.85;;;0.40;;
62709;SDS011;48770;51.624;5.886;2023-10-31T14:52:20;0.65;;;0.40;;
62709;SDS011;48770;51.624;5.886;2023-10-31T14:54:45;2.15;;;0.50;;